Time;durP1;ratioP1;P1;durP2;ratioP2;P2;SDS_P1;SDS_P2;PMS_P1;PMS_P2;Temp;Humidity;BMP_temperature;BMP_pressure;BME280_temperature;BME280_humidity;BME280_pressure;Samples;Min_cycle;Max_cycle;Signal;HPM_P1;HPM_P2
2022/02/10 00:04:19;;;;;;;0.50;0.50;;;;;;;8.98;69.88;100718.45;103342;1276;139686;-65
2022/02/10 00:36:27;;;;;;;0.50;0.50;;;;;;;8.98;69.68;100739.17;103373;1275;108919;-65
2022/02/10 00:39:02;;;;;;;0.50;0.50;;;;;;;8.91;69.90;100739.65;103591;1274;138633;-66
2022/02/10 00:41:30;;;;;;;0.50;0.50;;;;;;;8.90;70.10;100736.66;103392;1276;95632;-64
2022/02/10 00:43:57;;;;;;;0.50;0.40;;;;;;;8.92;70.02;100739.98;103383;1276;109999;-63
2022/02/10 00:46:25;;;;;;;0.50;0.40;;;;;;;8.95;70.08;100737.11;103284;1277;139005;-63
2022/02/10 00:48:53;;;;;;;0.50;0.40;;;;;;;8.91;70.17;100734.34;103385;1276;108872;-64
2022/02/10 00:51:21;;;;;;;0.50;0.50;;;;;;;8.91;70.17;100733.80;103312;1276;138422;-64
2022/02/10 00:53:51;;;;;;;0.40;0.40;;;;;;;8.90;70.17;100727.79;103421;1276;95551;-66
2022/02/10 00:56:20;;;;;;;0.50;0.40;;;;;;;8.87;70.23;100729.08;103225;1276;138660;-65
2022/02/10 00:58:57;;;;;;;0.50;0.50;;;;;;;8.84;70.37;100725.74;103329;1276;99416;-64
2022/02/10 01:07:05;;;;;;;0.50;0.40;;;;;;;9.01;70.13;100735.44;103439;1276;95658;-63
2022/02/10 01:31:33;;;;;;;0.50;0.50;;;;;;;8.96;70.41;100733.37;103284;1278;95248;-65
2022/02/10 01:34:01;;;;;;;0.50;0.50;;;;;;;8.99;70.33;100735.46;103318;1276;138336;-63
2022/02/10 01:36:30;;;;;;;0.50;0.50;;;;;;;8.94;70.62;100729.85;103314;1275;109842;-65
2022/02/10 01:38:59;;;;;;;0.50;0.40;;;;;;;8.96;70.62;100734.07;103436;1276;138993;-65
2022/02/10 02:03:55;;;;;;;0.50;0.50;;;;;;;9.09;70.48;100748.08;103346;1276;139371;-65
2022/02/10 02:06:27;;;;;;;0.50;0.50;;;;;;;9.05;70.27;100739.63;103494;1276;99393;-66
2022/02/10 02:08:58;;;;;;;0.50;0.50;;;;;;;9.02;70.49;100737.52;103316;1276;139768;-63
2022/02/10 02:11:27;;;;;;;0.50;0.40;;;;;;;9.03;70.44;100741.23;103529;1276;95341;-65
2022/02/10 02:13:55;;;;;;;0.50;0.50;;;;;;;9.02;70.60;100743.38;103428;1275;96022;-64
2022/02/10 02:16:26;;;;;;;0.40;0.40;;;;;;;9.00;70.58;100743.59;103351;1276;138443;-63
2022/02/10 02:18:54;;;;;;;0.50;0.50;;;;;;;8.95;70.58;100742.42;103411;1276;99360;-65
2022/02/10 02:21:22;;;;;;;0.50;0.50;;;;;;;8.92;70.93;100742.46;103402;1277;138910;-66
2022/02/10 02:23:50;;;;;;;0.50;0.50;;;;;;;8.92;70.95;100747.06;103782;1275;95267;-64
2022/02/10 02:26:24;;;;;;;0.50;0.50;;;;;;;8.97;70.80;100750.36;103474;1276;96953;-64
2022/02/10 02:28:57;;;;;;;0.50;0.50;;;;;;;8.97;70.97;100745.59;103374;1276;138355;-65
2022/02/10 02:31:32;;;;;;;0.50;0.40;;;;;;;8.99;70.81;100741.83;103427;1276;99562;-65
2022/02/10 02:37:13;;;;;;;0.40;0.40;;;;;;;9.06;70.62;100738.20;103473;1276;95855;-64
2022/02/10 03:10:06;;;;;;;0.50;0.50;;;;;;;9.08;70.78;100734.45;103352;1276;138288;-64
2022/02/10 03:12:36;;;;;;;0.40;0.40;;;;;;;9.02;70.88;100734.70;103456;1276;99089;-65
2022/02/10 03:15:09;;;;;;;0.50;0.50;;;;;;;9.11;70.94;100727.49;103327;1276;139441;-65
2022/02/10 03:59:37;;;;;;;0.40;0.40;;;;;;;9.18;70.65;100730.74;103402;1276;138506;-65
2022/02/10 04:02:14;;;;;;;0.50;0.40;;;;;;;9.05;71.17;100713.60;103495;1276;95212;-65
2022/02/10 04:07:51;;;;;;;0.50;0.40;;;;;;;9.09;71.40;100716.38;103451;1276;98592;-65
2022/02/10 04:13:51;;;;;;;0.50;0.50;;;;;;;9.16;71.66;100721.92;103079;1281;95753;-65
2022/02/10 04:16:27;;;;;;;0.40;0.40;;;;;;;9.15;71.49;100727.44;103073;1281;138643;-66
2022/02/10 04:27:04;;;;;;;0.50;0.40;;;;;;;9.10;71.79;100730.87;103430;1276;95474;-65
2022/02/10 05:34:07;;;;;;;0.50;0.40;;;;;;;9.20;71.33;100742.77;103300;1276;139365;-65
2022/02/10 05:36:37;;;;;;;0.50;0.40;;;;;;;9.27;70.81;100747.63;103483;1276;95578;-65
2022/02/10 05:39:17;;;;;;;0.50;0.50;;;;;;;9.22;70.80;100746.09;103665;1276;109749;-64
2022/02/10 06:38:04;;;;;;;0.50;0.50;;;;;;;9.26;70.91;100746.23;103435;1276;95440;-67
2022/02/10 06:50:50;;;;;;;0.40;0.40;;;;;;;9.11;71.76;100733.15;103485;1276;99494;-67
2022/02/10 07:17:23;;;;;;;0.50;0.40;;;;;;;9.13;71.72;100725.52;103394;1277;139114;-64
2022/02/10 07:48:33;;;;;;;0.50;0.40;;;;;;;9.32;71.91;100746.84;103283;1276;139547;-66
2022/02/10 07:53:36;;;;;;;0.50;0.40;;;;;;;9.32;71.91;100750.38;103327;1277;137995;-66
2022/02/10 09:02:12;;;;;;;0.50;0.40;;;;;;;9.07;73.97;100726.31;103382;1276;95199;-65
2022/02/10 09:10:41;;;;;;;0.50;0.40;;;;;;;9.18;73.79;100726.33;103237;1276;139050;-65
2022/02/10 09:16:10;;;;;;;0.50;0.40;;;;;;;9.42;73.32;100720.63;103299;1276;95209;-67
2022/02/10 10:01:37;;;;;;;0.50;0.40;;;;;;;9.91;71.92;100682.89;103567;1276;99364;-65
2022/02/10 10:04:14;;;;;;;0.40;0.40;;;;;;;10.02;71.52;100674.17;103405;1276;138419;-65
2022/02/10 10:09:25;;;;;;;0.50;0.40;;;;;;;10.00;70.92;100673.86;103390;1276;95359;-67
2022/02/10 10:15:28;;;;;;;0.40;0.40;;;;;;;10.14;70.44;100660.62;103447;1276;99512;-65
2022/02/10 10:21:16;;;;;;;0.40;0.40;;;;;;;10.06;70.35;100654.94;103372;1276;95305;-65
2022/02/10 10:56:54;;;;;;;0.40;0.40;;;;;;;10.22;69.02;100612.91;104893;1276;98793;-66
2022/02/10 10:59:36;;;;;;;0.40;0.40;;;;;;;10.27;68.79;100612.79;103217;1276;137933;-64
2022/02/10 11:39:21;;;;;;;0.40;0.40;;;;;;;10.48;67.18;100558.41;103505;1276;98536;-65
2022/02/10 11:42:06;;;;;;;0.40;0.40;;;;;;;10.44;67.17;100554.06;103175;1276;137313;-67
2022/02/10 14:17:02;;;;;;;0.40;0.30;;;;;;;11.15;68.08;100379.59;103483;1276;138594;-66
2022/02/10 14:27:30;;;;;;;0.40;0.40;;;;;;;10.70;68.32;100359.88;103613;1276;99404;-66
2022/02/10 14:29:58;;;;;;;0.40;0.30;;;;;;;10.69;68.72;100355.48;103495;1276;138213;-65
2022/02/10 14:32:31;;;;;;;0.40;0.30;;;;;;;10.54;68.84;100348.60;103608;1276;95810;-67
2022/02/10 14:35:09;;;;;;;0.40;0.30;;;;;;;10.53;69.20;100347.90;103474;1276;139079;-66
2022/02/10 15:28:54;;;;;;;0.40;0.40;;;;;;;9.87;69.12;100292.45;103580;1276;99397;-66
2022/02/10 15:48:34;;;;;;;0.40;0.40;;;;;;;9.47;68.36;100274.80;103574;1276;110060;-66
2022/02/10 16:17:03;;;;;;;0.50;0.40;;;;;;;9.15;67.78;100237.83;103622;1276;98116;-65
2022/02/10 16:19:33;;;;;;;0.50;0.50;;;;;;;9.09;67.84;100236.38;103473;1276;138241;-66
2022/02/10 16:24:45;;;;;;;0.40;0.40;;;;;;;8.99;67.81;100233.91;103396;1278;138412;-69
2022/02/10 16:27:17;;;;;;;0.50;0.40;;;;;;;8.97;68.09;100236.65;103263;1278;109289;-65
2022/02/10 16:29:46;;;;;;;0.60;0.60;;;;;;;8.95;67.89;100235.45;103390;1276;138637;-67
2022/02/10 16:32:19;;;;;;;0.50;0.40;;;;;;;8.95;68.07;100232.44;103430;1276;108902;-66
2022/02/10 16:34:52;;;;;;;0.50;0.40;;;;;;;8.93;67.59;100228.94;103376;1277;96432;-66
2022/02/10 16:37:26;;;;;;;0.50;0.40;;;;;;;8.91;67.58;100231.82;103849;1277;138824;-66
2022/02/10 16:39:58;;;;;;;0.50;0.50;;;;;;;8.91;67.98;100232.17;103828;1276;109913;-66
2022/02/10 16:42:31;;;;;;;0.50;0.50;;;;;;;8.94;67.65;100228.02;103448;1277;139294;-64
2022/02/10 16:45:04;;;;;;;0.40;0.40;;;;;;;8.96;67.60;100227.09;103545;1275;107266;-67
2022/02/10 16:47:34;;;;;;;0.50;0.50;;;;;;;8.96;67.71;100221.25;103687;1277;138251;-65
2022/02/10 16:50:08;;;;;;;0.50;0.40;;;;;;;8.99;67.34;100224.53;103400;1277;95263;-66
2022/02/10 16:52:48;;;;;;;0.50;0.50;;;;;;;8.96;67.02;100218.95;103505;1277;109556;-67
2022/02/10 17:15:49;;;;;;;0.50;0.50;;;;;;;8.98;66.73;100203.67;103359;1276;97039;-64
2022/02/10 17:25:47;;;;;;;0.50;0.40;;;;;;;8.94;67.08;100202.51;103308;1277;138943;-65
2022/02/10 17:28:15;;;;;;;0.50;0.40;;;;;;;8.99;66.60;100191.08;103496;1277;95746;-67
2022/02/10 17:41:36;;;;;;;0.50;0.40;;;;;;;8.91;66.18;100162.23;103543;1277;95255;-66
2022/02/10 17:54:27;;;;;;;0.50;0.50;;;;;;;8.88;66.37;100142.80;103260;1277;138384;-64
2022/02/10 17:56:55;;;;;;;0.50;0.50;;;;;;;8.84;66.09;100143.79;103467;1276;95745;-65
2022/02/10 17:59:24;;;;;;;0.50;0.40;;;;;;;8.84;65.99;100140.77;103380;1277;109815;-65
2022/02/10 18:01:52;;;;;;;0.50;0.40;;;;;;;8.81;65.95;100138.38;103520;1277;138599;-66
2022/02/10 18:04:23;;;;;;;0.50;0.50;;;;;;;8.79;66.09;100137.35;103467;1276;107639;-65
2022/02/10 18:06:56;;;;;;;0.50;0.50;;;;;;;8.80;66.53;100134.14;103575;1277;138885;-65
2022/02/10 18:15:08;;;;;;;0.50;0.50;;;;;;;8.78;66.67;100118.09;103542;1277;99950;-65
2022/02/10 18:17:58;;;;;;;0.50;0.50;;;;;;;8.75;66.42;100114.45;103551;1277;108835;-66
2022/02/10 18:20:34;;;;;;;0.50;0.40;;;;;;;8.75;66.35;100113.04;103530;1277;95753;-65
2022/02/10 18:25:48;;;;;;;0.50;0.50;;;;;;;8.76;66.31;100114.43;103409;1276;137190;-65
2022/02/10 18:28:54;;;;;;;0.50;0.50;;;;;;;8.72;66.63;100115.04;103577;1274;99430;-66
2022/02/10 19:07:05;;;;;;;0.50;0.50;;;;;;;8.83;65.66;100084.51;103288;1277;139081;-66
2022/02/10 19:09:38;;;;;;;0.50;0.40;;;;;;;8.80;65.79;100084.03;103451;1277;99404;-66
2022/02/10 19:12:15;;;;;;;0.50;0.50;;;;;;;8.85;65.88;100088.35;103501;1277;108920;-65
2022/02/10 19:14:53;;;;;;;0.50;0.50;;;;;;;8.92;65.47;100083.75;103402;1276;139056;-64
2022/02/10 19:17:22;;;;;;;0.50;0.50;;;;;;;8.95;65.35;100077.15;103506;1276;95922;-65
2022/02/10 19:19:50;;;;;;;0.50;0.50;;;;;;;8.97;65.25;100078.68;103461;1277;137929;-66
2022/02/10 19:22:19;;;;;;;0.50;0.50;;;;;;;8.97;65.22;100081.00;103508;1276;99372;-65
2022/02/10 19:24:48;;;;;;;0.50;0.50;;;;;;;9.02;65.38;100081.93;103508;1276;138970;-65
2022/02/10 19:27:16;;;;;;;0.60;0.60;;;;;;;9.08;65.13;100078.95;103485;1276;95624;-66
2022/02/10 19:29:44;;;;;;;0.50;0.50;;;;;;;9.12;64.97;100082.55;103523;1276;95366;-65
2022/02/10 19:32:16;;;;;;;0.50;0.50;;;;;;;9.16;64.67;100087.60;103277;1276;138015;-66
2022/02/10 19:34:46;;;;;;;0.50;0.50;;;;;;;9.20;64.73;100089.09;103352;1276;99423;-66
2022/02/10 19:37:22;;;;;;;0.50;0.50;;;;;;;9.27;64.59;100089.42;103317;1276;138661;-66
2022/02/10 19:39:58;;;;;;;0.50;0.50;;;;;;;9.33;64.18;100090.18;103505;1276;95462;-66
2022/02/10 19:42:29;;;;;;;0.50;0.50;;;;;;;9.36;64.31;100095.75;103418;1277;138285;-67
2022/02/10 19:45:02;;;;;;;0.50;0.50;;;;;;;9.40;64.24;100104.51;103482;1276;108860;-67
2022/02/10 19:47:31;;;;;;;0.50;0.50;;;;;;;9.42;64.12;100105.73;103354;1276;99380;-66
2022/02/10 19:50:05;;;;;;;0.50;0.50;;;;;;;9.43;63.88;100113.32;103412;1276;138753;-65
2022/02/10 19:52:38;;;;;;;0.50;0.50;;;;;;;9.45;64.29;100117.85;103415;1276;95554;-66
2022/02/10 19:55:09;;;;;;;0.50;0.50;;;;;;;9.47;63.97;100115.69;103427;1276;138161;-67
2022/02/10 19:57:39;;;;;;;0.50;0.50;;;;;;;9.47;64.37;100117.81;103400;1276;109725;-66
2022/02/10 20:00:13;;;;;;;0.50;0.50;;;;;;;9.53;64.27;100124.90;103510;1277;98922;-65
2022/02/10 20:02:42;;;;;;;0.50;0.40;;;;;;;9.56;64.48;100131.20;103341;1276;138659;-65
2022/02/10 20:05:18;;;;;;;0.50;0.40;;;;;;;9.60;64.39;100134.83;103597;1276;95164;-65
2022/02/10 20:07:51;;;;;;;0.50;0.50;;;;;;;9.63;64.63;100139.20;103398;1276;138368;-65
2022/02/10 20:10:19;;;;;;;0.50;0.50;;;;;;;9.63;64.59;100135.80;103506;1276;110246;-65
2022/02/10 20:12:48;;;;;;;0.60;0.60;;;;;;;9.63;64.79;100131.91;103467;1276;139495;-65
2022/02/10 20:15:16;;;;;;;0.50;0.40;;;;;;;9.67;65.06;100130.73;103489;1276;108868;-65
2022/02/10 20:17:44;;;;;;;0.50;0.50;;;;;;;9.73;65.03;100133.07;103424;1276;95621;-63
2022/02/10 20:20:12;;;;;;;0.50;0.50;;;;;;;9.75;64.88;100134.45;103302;1276;138861;-65
2022/02/10 20:22:42;;;;;;;0.50;0.50;;;;;;;9.73;65.09;100136.27;103464;1276;111607;-65
2022/02/10 20:25:31;;;;;;;0.50;0.50;;;;;;;9.75;65.21;100136.04;103343;1276;138783;-64
2022/02/10 20:27:59;;;;;;;0.50;0.50;;;;;;;9.75;65.37;100139.22;103491;1276;109365;-63
2022/02/10 20:30:27;;;;;;;0.50;0.50;;;;;;;9.73;65.44;100147.26;103403;1276;138900;-65
2022/02/10 20:32:55;;;;;;;0.50;0.50;;;;;;;9.74;65.35;100141.20;103457;1276;95171;-66
2022/02/10 20:35:22;;;;;;;0.50;0.50;;;;;;;9.74;65.53;100148.28;103451;1276;109646;-65
2022/02/10 20:37:57;;;;;;;0.50;0.50;;;;;;;9.78;65.67;100153.51;103404;1276;138859;-66
2022/02/10 20:40:26;;;;;;;0.50;0.50;;;;;;;9.76;65.59;100158.35;103515;1276;107815;-65
2022/02/10 20:43:02;;;;;;;0.50;0.50;;;;;;;9.73;65.57;100160.73;103303;1276;139403;-64
2022/02/10 20:45:31;;;;;;;0.50;0.50;;;;;;;9.72;65.74;100162.52;103457;1276;95656;-66
2022/02/10 20:47:59;;;;;;;0.50;0.50;;;;;;;9.68;65.89;100165.10;103499;1276;110544;-65
2022/02/10 20:50:27;;;;;;;0.50;0.50;;;;;;;9.63;65.97;100160.11;103403;1276;138653;-66
2022/02/10 20:52:55;;;;;;;0.50;0.50;;;;;;;9.62;65.88;100164.39;103472;1276;109722;-66
2022/02/10 20:55:24;;;;;;;0.50;0.40;;;;;;;9.65;65.90;100166.25;103427;1276;138537;-65
2022/02/10 20:57:58;;;;;;;0.50;0.50;;;;;;;9.62;65.96;100171.11;103477;1276;95590;-62
2022/02/10 21:00:30;;;;;;;0.50;0.50;;;;;;;9.62;66.11;100176.95;103385;1276;138120;-65
2022/02/10 21:02:59;;;;;;;0.50;0.50;;;;;;;9.67;66.05;100174.36;103552;1276;98924;-65
2022/02/10 21:05:38;;;;;;;0.50;0.40;;;;;;;9.69;66.01;100174.85;103450;1274;106528;-62
2022/02/10 21:08:14;;;;;;;0.50;0.40;;;;;;;9.74;66.01;100173.12;103292;1276;138173;-65
2022/02/10 21:10:43;;;;;;;0.60;0.60;;;;;;;9.76;65.89;100173.59;103400;1276;95644;-65
2022/02/10 21:13:12;;;;;;;0.50;0.50;;;;;;;9.75;65.93;100174.88;103362;1276;138864;-65
2022/02/10 21:15:44;;;;;;;0.50;0.50;;;;;;;9.75;66.06;100181.23;103528;1276;99683;-66
2022/02/10 21:18:13;;;;;;;0.40;0.40;;;;;;;9.70;65.94;100187.56;103481;1276;108814;-65
2022/02/10 21:20:43;;;;;;;0.50;0.50;;;;;;;9.62;66.38;100193.62;103425;1276;138024;-66
2022/02/10 21:25:46;;;;;;;0.50;0.50;;;;;;;9.50;66.89;100191.10;103421;1276;138736;-66
2022/02/10 21:30:44;;;;;;;0.50;0.50;;;;;;;9.39;67.76;100194.55;103794;1276;138737;-65
2022/02/10 21:33:22;;;;;;;0.50;0.50;;;;;;;9.38;67.91;100191.74;103825;1276;96448;-65
2022/02/10 21:38:29;;;;;;;0.50;0.50;;;;;;;9.38;68.23;100200.80;103981;1275;138653;-62
2022/02/10 21:53:05;;;;;;;0.50;0.40;;;;;;;9.37;68.80;100203.11;103586;1276;109202;-66
2022/02/10 21:56:39;;;;;;;0.50;0.50;;;;;;;9.30;69.01;100202.74;103422;1276;138767;-65
2022/02/10 22:12:15;;;;;;;0.50;0.40;;;;;;;9.26;70.22;100216.48;103507;1276;108476;-65
2022/02/10 22:20:12;;;;;;;0.50;0.50;;;;;;;9.19;70.73;100228.15;103399;1276;138472;-65
2022/02/10 22:22:51;;;;;;;0.50;0.50;;;;;;;9.14;70.47;100233.58;103639;1276;99500;-66
2022/02/10 22:25:20;;;;;;;0.50;0.50;;;;;;;9.15;70.17;100236.58;103447;1276;139002;-65
2022/02/10 22:27:50;;;;;;;0.50;0.50;;;;;;;9.10;69.39;100237.05;103437;1276;95123;-67
2022/02/10 22:30:20;;;;;;;0.50;0.50;;;;;;;9.10;69.37;100238.64;103487;1276;95775;-67
2022/02/10 22:33:04;;;;;;;0.50;0.50;;;;;;;9.11;68.97;100233.83;103590;1276;139485;-66
2022/02/10 22:35:33;;;;;;;0.50;0.40;;;;;;;9.07;68.49;100236.42;103561;1276;99725;-66
2022/02/10 22:38:00;;;;;;;0.50;0.50;;;;;;;8.92;68.22;100239.94;103375;1276;138362;-66
2022/02/10 22:40:57;;;;;;;0.50;0.50;;;;;;;8.76;68.06;100247.17;103501;1276;96951;-62
2022/02/10 22:43:25;;;;;;;0.60;0.60;;;;;;;8.67;68.15;100254.80;103459;1276;139164;-64
2022/02/10 22:45:53;;;;;;;0.50;0.40;;;;;;;8.58;68.16;100253.58;103559;1276;109629;-63
2022/02/10 22:48:21;;;;;;;0.50;0.50;;;;;;;8.53;68.32;100256.15;103526;1276;99475;-66
2022/02/10 22:50:49;;;;;;;0.60;0.60;;;;;;;8.49;68.48;100263.30;103413;1274;138590;-66
2022/02/10 22:53:19;;;;;;;0.50;0.50;;;;;;;8.48;68.45;100272.19;103515;1276;95333;-66
2022/02/10 22:55:47;;;;;;;0.60;0.60;;;;;;;8.44;68.51;100272.59;103422;1276;139027;-66
2022/02/10 22:58:15;;;;;;;0.60;0.60;;;;;;;8.37;68.50;100276.94;103534;1276;109660;-65
2022/02/10 23:00:49;;;;;;;0.60;0.60;;;;;;;8.36;68.57;100278.03;103449;1276;140682;-66
2022/02/10 23:03:23;;;;;;;0.50;0.50;;;;;;;8.40;68.45;100283.79;103492;1276;108429;-66
2022/02/10 23:05:52;;;;;;;0.60;0.60;;;;;;;8.45;68.58;100287.61;103556;1276;95722;-66
2022/02/10 23:08:20;;;;;;;0.60;0.60;;;;;;;8.50;68.35;100291.41;103461;1276;138438;-66
2022/02/10 23:10:49;;;;;;;0.60;0.60;;;;;;;8.60;68.25;100295.65;103519;1276;109599;-66
2022/02/10 23:13:26;;;;;;;0.50;0.50;;;;;;;8.66;68.00;100302.08;103523;1276;140032;-67
2022/02/10 23:15:59;;;;;;;0.50;0.50;;;;;;;8.65;67.86;100307.41;103869;1276;108775;-66
2022/02/10 23:18:29;;;;;;;0.60;0.60;;;;;;;8.54;67.58;100311.68;103620;1275;95713;-64
2022/02/10 23:20:59;;;;;;;0.50;0.50;;;;;;;8.46;67.74;100313.61;103479;1276;138052;-67
2022/02/10 23:23:29;;;;;;;0.50;0.50;;;;;;;8.46;67.73;100321.93;103510;1276;108161;-67
2022/02/10 23:25:59;;;;;;;0.60;0.60;;;;;;;8.36;67.48;100324.75;103487;1276;138449;-65
2022/02/10 23:28:37;;;;;;;0.60;0.60;;;;;;;8.26;67.83;100330.05;103937;1276;108794;-66
2022/02/10 23:31:10;;;;;;;0.60;0.60;;;;;;;8.29;67.78;100330.88;103543;1276;138631;-66
2022/02/10 23:33:41;;;;;;;0.50;0.50;;;;;;;8.29;67.58;100334.59;103593;1276;96432;-66
2022/02/10 23:43:42;;;;;;;0.60;0.60;;;;;;;8.11;67.29;100358.25;103411;1277;139358;-66
2022/02/10 23:46:11;;;;;;;0.60;0.60;;;;;;;8.07;67.25;100372.80;103532;1276;95634;-65
2022/02/10 23:48:39;;;;;;;0.60;0.60;;;;;;;7.99;67.42;100374.71;103455;1276;138962;-64
2022/02/10 23:51:07;;;;;;;0.70;0.70;;;;;;;8.04;67.82;100375.17;103533;1276;99378;-67
2022/02/10 23:53:35;;;;;;;0.60;0.60;;;;;;;8.10;67.43;100379.14;103510;1276;108805;-65
2022/02/10 23:56:09;;;;;;;0.50;0.50;;;;;;;8.07;67.17;100377.23;103442;1276;138558;-66
